Time;durP1;ratioP1;P1;durP2;ratioP2;P2;SDS_P1;SDS_P2;PMS_P1;PMS_P2;Temp;Humidity;BMP_temperature;BMP_pressure;BME280_temperature;BME280_humidity;BME280_pressure;Samples;Min_cycle;Max_cycle;Signal;HPM_P1;HPM_P2
2021/10/01 00:01:14;;;;;;;16.65;12.95;;;23.30;64.60;;;;;;5052844;28;20470;-72
2021/10/01 00:03:40;;;;;;;15.80;12.82;;;23.20;64.70;;;;;;5052854;28;20029;-71
2021/10/01 00:06:06;;;;;;;15.50;12.38;;;23.20;64.90;;;;;;5051065;28;20055;-71
2021/10/01 00:08:32;;;;;;;16.60;12.63;;;23.30;64.60;;;;;;5052649;28;20454;-71
2021/10/01 00:10:58;;;;;;;17.08;13.35;;;23.20;64.90;;;;;;5051483;28;20029;-72
2021/10/01 00:13:25;;;;;;;16.42;12.60;;;23.20;65.10;;;;;;5052601;28;20058;-70
2021/10/01 00:15:52;;;;;;;15.18;11.75;;;23.20;64.90;;;;;;5052620;28;20017;-71
2021/10/01 00:18:18;;;;;;;16.75;11.60;;;23.10;65.00;;;;;;5052431;28;20029;-71
2021/10/01 00:20:43;;;;;;;17.00;12.32;;;23.10;64.50;;;;;;5052788;28;20143;-73
2021/10/01 00:23:09;;;;;;;14.32;11.82;;;23.10;64.50;;;;;;5052700;28;20071;-72
2021/10/01 00:25:35;;;;;;;16.70;10.90;;;23.10;64.30;;;;;;5052552;28;20036;-71
2021/10/01 00:28:00;;;;;;;17.02;11.95;;;23.10;64.30;;;;;;5052591;28;20175;-72
2021/10/01 00:30:26;;;;;;;19.63;11.70;;;23.00;64.00;;;;;;5052639;28;20047;-73
2021/10/01 00:32:53;;;;;;;16.25;11.63;;;23.00;64.10;;;;;;5052589;28;20124;-72
2021/10/01 00:35:19;;;;;;;14.40;10.95;;;23.00;63.80;;;;;;5052497;28;20021;-72
2021/10/01 00:37:45;;;;;;;14.98;10.18;;;23.00;64.00;;;;;;5052605;28;20028;-71
2021/10/01 00:40:11;;;;;;;18.33;10.48;;;23.10;63.50;;;;;;5052682;28;20021;-71
2021/10/01 00:42:37;;;;;;;16.98;10.43;;;23.00;63.00;;;;;;5052488;28;20017;-73
2021/10/01 00:45:04;;;;;;;13.70;9.65;;;22.90;62.80;;;;;;5052251;28;20067;-72
2021/10/01 00:47:30;;;;;;;14.45;9.35;;;22.90;62.80;;;;;;5052332;28;20060;-72
2021/10/01 00:49:55;;;;;;;13.20;9.30;;;22.90;62.40;;;;;;5052574;28;20045;-72
2021/10/01 00:52:21;;;;;;;13.82;8.90;;;22.90;62.40;;;;;;5052498;28;20040;-72
2021/10/01 00:54:48;;;;;;;11.00;9.32;;;22.80;62.20;;;;;;5052272;28;20032;-73
2021/10/01 00:57:13;;;;;;;16.02;9.40;;;22.80;62.70;;;;;;5052228;28;20021;-73
2021/10/01 00:59:39;;;;;;;15.68;9.48;;;22.70;61.70;;;;;;5056346;28;20024;-71
2021/10/01 01:02:05;;;;;;;13.98;8.70;;;22.70;61.60;;;;;;5056111;28;20048;-71
2021/10/01 01:04:32;;;;;;;13.93;8.63;;;22.70;61.60;;;;;;5055986;28;20561;-70
2021/10/01 01:07:15;;;;;;;12.27;8.98;;;22.60;61.50;;;;;;5055890;28;20462;-71
2021/10/01 01:10:00;;;;;;;15.48;8.68;;;22.60;61.10;;;;;;5056365;28;20056;-72
2021/10/01 01:12:51;;;;;;;13.38;8.50;;;22.60;61.20;;;;;;5055810;28;20021;-73
2021/10/01 01:15:22;;;;;;;12.23;8.73;;;22.60;61.10;;;;;;5056230;28;20378;-72
2021/10/01 01:17:55;;;;;;;14.18;8.32;;;22.60;61.10;;;;;;5055889;28;20021;-71
2021/10/01 01:20:48;;;;;;;13.70;8.45;;;22.60;61.10;;;;;;5055965;28;20056;-73
2021/10/01 01:23:22;;;;;;;10.23;7.80;;;22.50;60.80;;;;;;5055899;28;20021;-71
2021/10/01 01:25:56;;;;;;;14.50;8.98;;;22.50;60.70;;;;;;5055759;28;20037;-71
2021/10/01 01:28:37;;;;;;;10.57;8.40;;;22.50;60.90;;;;;;5055731;28;20021;-71
2021/10/01 01:31:42;;;;;;;14.13;8.63;;;22.40;60.40;;;;;;5055669;28;20381;-72
2021/10/01 01:34:09;;;;;;;14.50;9.00;;;22.40;60.40;;;;;;5049437;28;20048;-72
2021/10/01 01:36:36;;;;;;;13.38;9.48;;;22.30;60.90;;;;;;5055494;28;20021;-71
2021/10/01 01:39:06;;;;;;;16.77;10.10;;;22.30;60.90;;;;;;5054401;28;20028;-74
2021/10/01 01:41:34;;;;;;;14.27;9.77;;;22.10;61.20;;;;;;5055485;28;20020;-71
2021/10/01 01:44:01;;;;;;;15.82;10.20;;;22.10;61.40;;;;;;5055479;28;20386;-72
2021/10/01 01:46:27;;;;;;;12.40;9.23;;;22.10;61.50;;;;;;5055574;28;20063;-71
2021/10/01 01:48:54;;;;;;;11.85;9.10;;;22.10;61.60;;;;;;5055540;28;20025;-72
2021/10/01 01:51:23;;;;;;;12.98;9.02;;;22.00;61.50;;;;;;5055470;28;20036;-71
2021/10/01 01:53:49;;;;;;;14.48;9.48;;;22.00;61.80;;;;;;5055159;28;20033;-72
2021/10/01 01:56:16;;;;;;;16.10;9.15;;;22.00;61.70;;;;;;5055058;28;20028;-72
2021/10/01 01:58:43;;;;;;;13.02;9.35;;;22.00;61.90;;;;;;5055366;28;20063;-72
2021/10/01 02:01:10;;;;;;;13.23;9.00;;;22.00;61.90;;;;;;5055390;28;20025;-72
2021/10/01 02:03:38;;;;;;;12.40;8.82;;;21.90;62.00;;;;;;5055067;28;20122;-72
2021/10/01 02:06:06;;;;;;;14.23;8.70;;;21.90;62.00;;;;;;5054780;28;20048;-74
2021/10/01 02:08:33;;;;;;;12.40;8.70;;;21.90;62.20;;;;;;5054897;28;20029;-71
2021/10/01 02:11:00;;;;;;;11.60;8.60;;;21.90;62.30;;;;;;5055110;28;20087;-72
2021/10/01 02:13:26;;;;;;;13.07;8.57;;;21.90;62.20;;;;;;5054738;28;20484;-71
2021/10/01 02:15:54;;;;;;;11.18;8.73;;;21.80;62.40;;;;;;5055472;28;20410;-73
2021/10/01 02:18:27;;;;;;;13.15;8.38;;;21.80;62.70;;;;;;5054753;28;20037;-72
2021/10/01 02:20:55;;;;;;;12.15;8.25;;;21.80;62.70;;;;;;5054695;28;20040;-72
2021/10/01 02:23:20;;;;;;;13.00;9.15;;;21.80;62.70;;;;;;5054751;28;20055;-71
2021/10/01 02:28:46;;;;;;;13.63;9.25;;;21.70;62.70;;;;;;5054741;28;20036;-70
2021/10/01 02:31:21;;;;;;;11.73;8.60;;;21.70;62.70;;;;;;5054592;28;20049;-72
2021/10/01 02:33:48;;;;;;;12.48;8.57;;;21.70;62.70;;;;;;5054344;28;20045;-72
2021/10/01 02:36:14;;;;;;;13.07;9.02;;;21.60;62.80;;;;;;5054311;28;20052;-71
2021/10/01 02:38:40;;;;;;;13.60;8.85;;;21.60;62.70;;;;;;5054171;28;20426;-71
2021/10/01 02:41:06;;;;;;;13.75;8.55;;;21.60;62.80;;;;;;5054215;28;20029;-71
2021/10/01 02:43:31;;;;;;;11.85;8.25;;;21.60;62.70;;;;;;5054369;28;20032;-71
2021/10/01 02:45:57;;;;;;;11.38;8.57;;;21.70;62.70;;;;;;5054085;28;20039;-71
2021/10/01 02:48:23;;;;;;;13.38;9.07;;;21.60;62.80;;;;;;5053989;28;20075;-72
2021/10/01 02:50:55;;;;;;;11.15;8.32;;;21.60;62.70;;;;;;5054230;28;20032;-71
2021/10/01 02:53:37;;;;;;;12.57;8.70;;;21.60;62.70;;;;;;5052753;28;20025;-72
2021/10/01 02:56:12;;;;;;;12.15;8.30;;;21.60;62.90;;;;;;5053905;28;20029;-72
2021/10/01 02:58:47;;;;;;;11.52;8.63;;;21.50;62.10;;;;;;5054023;28;20025;-72
2021/10/01 03:01:15;;;;;;;12.07;8.13;;;21.40;62.70;;;;;;5054216;28;20522;-72
2021/10/01 03:03:44;;;;;;;14.40;8.40;;;21.50;62.90;;;;;;5054147;28;20025;-72
2021/10/01 03:06:11;;;;;;;12.40;8.30;;;21.40;63.00;;;;;;5053418;28;20045;-71
2021/10/01 03:08:38;;;;;;;11.60;9.07;;;21.50;63.20;;;;;;5053859;28;20076;-71
2021/10/01 03:11:10;;;;;;;13.73;8.57;;;21.40;62.90;;;;;;5053750;28;20078;-71
2021/10/01 03:13:39;;;;;;;14.50;9.07;;;21.40;63.10;;;;;;5053544;28;20091;-72
2021/10/01 03:16:06;;;;;;;12.55;8.60;;;21.40;63.10;;;;;;5053469;28;20057;-72
2021/10/01 03:18:33;;;;;;;14.18;8.82;;;21.40;63.00;;;;;;5053498;28;20036;-72
2021/10/01 03:21:02;;;;;;;12.20;8.90;;;21.40;63.50;;;;;;5051730;28;20082;-71
2021/10/01 03:23:27;;;;;;;14.00;8.90;;;21.40;63.40;;;;;;5053567;28;20118;-71
2021/10/01 03:25:54;;;;;;;13.05;8.70;;;21.40;63.30;;;;;;5053238;28;20060;-73
2021/10/01 03:28:21;;;;;;;14.48;8.60;;;21.40;63.30;;;;;;5053563;28;20036;-72
2021/10/01 03:30:47;;;;;;;10.70;8.07;;;21.40;63.90;;;;;;5053489;28;20028;-72
2021/10/01 03:33:13;;;;;;;15.10;8.60;;;21.40;63.30;;;;;;5054057;28;20036;-72
2021/10/01 03:35:42;;;;;;;12.98;8.75;;;21.30;63.20;;;;;;5053102;28;20025;-70
2021/10/01 03:38:13;;;;;;;11.55;8.52;;;21.30;64.10;;;;;;5053062;28;20114;-72
2021/10/01 03:40:46;;;;;;;13.57;8.45;;;21.30;64.40;;;;;;5053321;28;20021;-71
2021/10/01 03:43:13;;;;;;;11.55;8.80;;;21.30;64.20;;;;;;5053312;28;20441;-72
2021/10/01 03:45:39;;;;;;;12.07;8.10;;;21.30;64.60;;;;;;5052982;28;20032;-71
2021/10/01 03:48:05;;;;;;;12.70;8.75;;;21.30;64.20;;;;;;5053202;28;20051;-72
2021/10/01 03:50:32;;;;;;;12.50;8.43;;;21.30;64.20;;;;;;5053125;28;20075;-72
2021/10/01 03:52:57;;;;;;;12.63;8.43;;;21.30;64.20;;;;;;5053083;28;20028;-71
2021/10/01 03:55:24;;;;;;;15.52;8.65;;;21.30;64.30;;;;;;5053138;28;20116;-71
2021/10/01 03:57:50;;;;;;;10.40;8.48;;;21.30;64.40;;;;;;5053271;28;20025;-72
2021/10/01 04:00:17;;;;;;;13.27;8.90;;;21.30;64.50;;;;;;5053154;28;20033;-74
2021/10/01 04:02:43;;;;;;;13.90;8.85;;;21.20;64.50;;;;;;5053048;28;20025;-71
2021/10/01 04:05:09;;;;;;;14.23;8.18;;;21.30;64.10;;;;;;5052827;28;20048;-74
2021/10/01 04:07:35;;;;;;;19.35;9.73;;;21.30;64.00;;;;;;5052672;28;20098;-73
2021/10/01 04:10:00;;;;;;;13.82;9.00;;;21.30;63.80;;;;;;5053197;28;20032;-74
2021/10/01 04:12:27;;;;;;;14.77;9.23;;;21.30;64.20;;;;;;5053758;28;20036;-71
2021/10/01 04:14:53;;;;;;;17.23;8.75;;;21.20;63.00;;;;;;5055119;28;20029;-73
2021/10/01 04:17:19;;;;;;;12.95;9.18;;;21.20;63.10;;;;;;5069625;28;20176;-76
2021/10/01 04:19:45;;;;;;;15.80;9.95;;;21.10;63.20;;;;;;5053929;28;20480;-71
2021/10/01 04:22:10;;;;;;;13.50;8.65;;;21.00;63.30;;;;;;5053006;28;20384;-72
2021/10/01 04:24:36;;;;;;;12.82;9.00;;;21.00;63.40;;;;;;5053205;28;20399;-73
2021/10/01 04:27:02;;;;;;;17.25;9.05;;;21.00;63.90;;;;;;5053123;28;20024;-78
2021/10/01 04:29:28;;;;;;;13.27;7.97;;;21.00;63.30;;;;;;5062835;28;20029;-72
2021/10/01 04:31:54;;;;;;;11.93;8.70;;;21.00;63.60;;;;;;5053458;28;20059;-73
2021/10/01 04:34:20;;;;;;;11.68;8.38;;;21.00;64.10;;;;;;5056869;28;20146;-73
2021/10/01 04:36:46;;;;;;;12.88;8.50;;;20.90;64.40;;;;;;5056712;28;20037;-71
2021/10/01 04:39:13;;;;;;;10.70;8.07;;;20.90;64.70;;;;;;5056600;28;20029;-72
2021/10/01 04:41:41;;;;;;;13.07;9.00;;;20.90;64.80;;;;;;5056473;28;20107;-72
2021/10/01 04:44:08;;;;;;;13.32;9.13;;;20.80;65.00;;;;;;5056416;28;20080;-73
2021/10/01 04:46:33;;;;;;;12.57;8.25;;;20.90;65.20;;;;;;5056648;28;20044;-72
2021/10/01 04:48:59;;;;;;;14.63;8.27;;;20.90;64.20;;;;;;5056813;28;20423;-73
2021/10/01 04:51:25;;;;;;;11.65;8.80;;;20.80;63.80;;;;;;5055358;28;20025;-73
2021/10/01 04:53:51;;;;;;;12.93;8.73;;;20.80;64.00;;;;;;5058558;28;20159;-73
2021/10/01 04:56:18;;;;;;;12.23;8.60;;;20.80;64.00;;;;;;5058298;28;20021;-73
2021/10/01 04:58:43;;;;;;;13.75;9.25;;;20.80;63.00;;;;;;5056807;28;20110;-73
2021/10/01 05:01:09;;;;;;;12.52;8.38;;;20.80;63.80;;;;;;5057063;28;20021;-78
2021/10/01 05:03:36;;;;;;;13.50;8.98;;;20.80;64.20;;;;;;5057090;28;20461;-76
2021/10/01 05:06:02;;;;;;;14.13;8.55;;;20.70;63.40;;;;;;5056422;28;20048;-73
2021/10/01 05:08:28;;;;;;;13.05;8.30;;;20.70;64.10;;;;;;5056882;28;20025;-73
2021/10/01 05:10:54;;;;;;;14.02;8.90;;;20.80;64.40;;;;;;5056836;28;20100;-80
2021/10/01 05:13:20;;;;;;;14.60;9.25;;;20.80;64.60;;;;;;5056794;28;20017;-72
2021/10/01 05:15:46;;;;;;;14.38;9.30;;;20.80;64.70;;;;;;5056197;28;20102;-74
2021/10/01 05:18:14;;;;;;;13.48;8.57;;;20.70;64.50;;;;;;5056297;28;20470;-67
2021/10/01 05:20:40;;;;;;;12.98;9.00;;;20.70;65.20;;;;;;5056180;28;20025;-71
2021/10/01 05:23:06;;;;;;;14.98;9.00;;;20.70;65.10;;;;;;5056059;28;20379;-67
2021/10/01 05:25:31;;;;;;;14.13;9.00;;;20.70;65.40;;;;;;5055744;28;20104;-68
2021/10/01 05:27:57;;;;;;;12.13;8.85;;;20.70;64.50;;;;;;5055841;28;20442;-68
2021/10/01 05:30:23;;;;;;;14.75;8.57;;;20.70;64.90;;;;;;5055960;28;20033;-66
2021/10/01 05:32:48;;;;;;;13.75;8.48;;;20.70;65.20;;;;;;5054186;28;20025;-66
2021/10/01 05:35:14;;;;;;;16.13;8.85;;;20.70;65.30;;;;;;5057541;28;20111;-66
2021/10/01 05:37:40;;;;;;;15.88;8.60;;;20.70;65.40;;;;;;5060601;28;20032;-68
2021/10/01 05:40:07;;;;;;;13.32;8.95;;;20.70;65.40;;;;;;5057981;28;20033;-72
2021/10/01 05:42:34;;;;;;;15.85;8.95;;;20.70;64.60;;;;;;5055330;28;20474;-70
2021/10/01 05:44:59;;;;;;;14.00;9.57;;;20.70;62.90;;;;;;5056697;28;20037;-67
2021/10/01 05:47:28;;;;;;;18.77;10.27;;;20.80;65.50;;;;;;5057926;28;20036;-72
2021/10/01 05:50:01;;;;;;;18.58;9.38;;;20.80;65.70;;;;;;5057804;28;20526;-73
2021/10/01 05:54:59;;;;;;;13.07;9.38;;;21.00;63.70;;;;;;5055268;28;20028;-67
2021/10/01 05:57:26;;;;;;;15.10;8.57;;;21.00;63.80;;;;;;5055975;28;20037;-74
2021/10/01 05:59:53;;;;;;;12.60;7.80;;;21.10;63.60;;;;;;5055523;28;20028;-69
2021/10/01 06:02:20;;;;;;;14.43;8.65;;;21.10;63.30;;;;;;5055507;28;20025;-72
2021/10/01 06:04:47;;;;;;;21.02;9.05;;;21.20;63.30;;;;;;5055202;28;20033;-69
2021/10/01 06:07:13;;;;;;;25.80;8.95;;;21.30;64.10;;;;;;5055098;28;20057;-73
2021/10/01 06:09:43;;;;;;;13.55;8.32;;;21.30;63.80;;;;;;5053837;28;20025;-68
2021/10/01 06:12:13;;;;;;;14.43;8.65;;;21.40;63.10;;;;;;5055022;28;20390;-82
2021/10/01 06:14:40;;;;;;;18.15;8.75;;;21.60;63.70;;;;;;5055558;28;20064;-78
2021/10/01 06:17:07;;;;;;;18.75;9.55;;;21.80;63.60;;;;;;5055010;28;20040;-84
2021/10/01 06:19:34;;;;;;;19.52;9.18;;;22.00;62.80;;;;;;5055324;28;20028;-73
2021/10/01 06:22:01;;;;;;;12.40;8.68;;;22.20;62.40;;;;;;5054733;28;20025;-69
2021/10/01 06:24:28;;;;;;;14.00;9.15;;;22.40;61.50;;;;;;5055081;28;20045;-75
2021/10/01 06:26:53;;;;;;;18.77;9.50;;;22.40;60.90;;;;;;5055089;28;20378;-65
2021/10/01 06:29:19;;;;;;;20.60;9.52;;;22.50;60.60;;;;;;5055121;28;20131;-67
2021/10/01 06:31:45;;;;;;;16.35;9.00;;;22.50;60.30;;;;;;5055056;28;20482;-67
2021/10/01 06:34:12;;;;;;;17.25;8.80;;;22.60;60.20;;;;;;5055206;28;20017;-67
2021/10/01 06:36:38;;;;;;;14.35;8.23;;;22.70;60.20;;;;;;5056988;28;20565;-67
2021/10/01 06:39:07;;;;;;;13.63;8.90;;;22.80;60.00;;;;;;5056147;28;20446;-67
2021/10/01 06:41:34;;;;;;;13.50;8.63;;;22.90;58.70;;;;;;5053637;28;20056;-67
2021/10/01 06:44:03;;;;;;;14.73;8.73;;;22.90;59.60;;;;;;5039397;28;20479;-70
2021/10/01 06:49:50;;;;;;;14.75;8.27;;;23.20;58.30;;;;;;5034772;28;20057;-67
2021/10/01 08:19:22;;;;;;;20.98;9.80;;;24.10;55.30;;;;;;5053170;28;20035;-67
2021/10/01 08:21:53;;;;;;;12.32;8.90;;;24.10;55.40;;;;;;5037413;28;20416;-70
2021/10/01 08:24:18;;;;;;;17.25;9.82;;;24.10;55.50;;;;;;5054398;28;20466;-69
2021/10/01 08:26:45;;;;;;;16.13;9.60;;;24.10;55.50;;;;;;5054436;28;20106;-68
2021/10/01 08:29:11;;;;;;;16.25;10.10;;;24.10;55.70;;;;;;5052987;28;20025;-67
2021/10/01 08:31:37;;;;;;;18.27;9.45;;;24.10;55.60;;;;;;5051649;28;20044;-71
2021/10/01 08:34:03;;;;;;;16.55;9.73;;;24.20;55.60;;;;;;5052819;28;20021;-67
2021/10/01 08:36:29;;;;;;;17.83;9.40;;;24.20;55.40;;;;;;5052478;28;20092;-66
2021/10/01 08:38:55;;;;;;;15.00;9.30;;;24.20;55.50;;;;;;5052542;28;20116;-67
2021/10/01 08:41:22;;;;;;;14.38;9.50;;;24.20;55.40;;;;;;5052566;28;20017;-67
2021/10/01 08:43:48;;;;;;;18.25;9.55;;;24.20;55.40;;;;;;5052211;28;20043;-65
2021/10/01 08:46:14;;;;;;;16.80;9.98;;;24.20;55.20;;;;;;5052215;28;20064;-67
2021/10/01 08:48:41;;;;;;;19.08;10.35;;;24.30;55.30;;;;;;5052245;28;20029;-67
2021/10/01 08:51:09;;;;;;;18.25;9.90;;;24.30;55.30;;;;;;5052591;28;20033;-66
2021/10/01 08:53:36;;;;;;;12.80;9.60;;;24.40;54.90;;;;;;5052219;28;20044;-67
2021/10/01 08:56:03;;;;;;;20.73;10.32;;;24.40;55.00;;;;;;5052417;28;20021;-66
2021/10/01 08:58:29;;;;;;;18.88;9.95;;;24.40;55.00;;;;;;5052905;28;20029;-66
2021/10/01 09:00:59;;;;;;;15.23;9.48;;;24.50;55.20;;;;;;5052435;28;20041;-66
2021/10/01 09:03:26;;;;;;;16.83;9.20;;;24.50;54.90;;;;;;5052363;28;20025;-67
2021/10/01 09:05:52;;;;;;;16.90;9.60;;;24.60;54.50;;;;;;5051566;28;20437;-66
2021/10/01 09:08:26;;;;;;;17.98;9.88;;;24.70;54.70;;;;;;5051770;28;20032;-67
2021/10/01 09:10:58;;;;;;;;;;;24.70;54.60;;;;;;5052499;28;20029;-66
2021/10/01 09:13:25;;;;;;;14.13;8.90;;;24.70;54.70;;;;;;5050666;28;19905;-66
2021/10/01 09:16:02;;;;;;;14.90;9.57;;;24.70;54.10;;;;;;5051705;28;20075;-67
2021/10/01 09:18:30;;;;;;;11.48;9.10;;;24.80;54.10;;;;;;5053367;28;20025;-68
2021/10/01 09:21:34;;;;;;;17.63;10.27;;;24.80;53.90;;;;;;5055923;28;20064;-69
2021/10/01 09:24:04;;;;;;;15.38;9.15;;;24.80;53.90;;;;;;5055240;28;20033;-66
2021/10/01 09:26:32;;;;;;;14.20;9.38;;;24.90;53.50;;;;;;5055599;28;20036;-67
2021/10/01 09:29:08;;;;;;;15.63;9.23;;;25.00;53.40;;;;;;5055605;28;20021;-67
2021/10/01 09:31:39;;;;;;;17.17;9.73;;;25.00;53.50;;;;;;5055627;28;20017;-67
2021/10/01 09:34:11;;;;;;;12.38;9.27;;;25.00;53.50;;;;;;5055512;28;20036;-68
2021/10/01 09:36:37;;;;;;;16.27;9.20;;;25.10;52.90;;;;;;5055378;28;20398;-66
2021/10/01 09:39:04;;;;;;;13.50;9.25;;;25.20;52.50;;;;;;5055525;28;20047;-67
2021/10/01 09:41:34;;;;;;;14.38;8.68;;;25.20;51.90;;;;;;5055489;28;20021;-66
2021/10/01 09:44:10;;;;;;;12.48;8.00;;;25.20;51.90;;;;;;5055545;28;20037;-66
2021/10/01 09:46:51;;;;;;;10.65;8.43;;;25.20;52.00;;;;;;5055245;28;20029;-66
2021/10/01 09:49:28;;;;;;;15.50;9.35;;;25.30;52.30;;;;;;5055271;28;20390;-66
2021/10/01 09:51:55;;;;;;;15.90;9.80;;;25.30;51.80;;;;;;5055210;28;20421;-66
2021/10/01 09:54:22;;;;;;;16.52;10.02;;;25.40;51.80;;;;;;5055187;28;20021;-66
2021/10/01 09:56:48;;;;;;;15.95;9.45;;;25.50;51.60;;;;;;5053608;28;20111;-67
2021/10/01 09:59:24;;;;;;;13.05;9.20;;;25.50;52.30;;;;;;5053795;28;20477;-67
2021/10/01 10:02:14;;;;;;;12.45;9.00;;;25.60;52.50;;;;;;5055197;28;20024;-67
2021/10/01 10:04:45;;;;;;;13.63;8.68;;;25.70;53.90;;;;;;5054861;28;20037;-66
2021/10/01 10:07:23;;;;;;;14.35;9.48;;;25.70;54.00;;;;;;5054777;28;20057;-68
2021/10/01 10:10:11;;;;;;;15.50;8.98;;;25.70;52.50;;;;;;5054933;28;20040;-65
2021/10/01 10:12:43;;;;;;;15.27;9.52;;;25.80;52.40;;;;;;5055097;28;20116;-66
2021/10/01 10:15:15;;;;;;;15.93;9.25;;;25.80;51.80;;;;;;5054639;28;20053;-69
2021/10/01 10:17:49;;;;;;;14.25;9.30;;;25.80;53.20;;;;;;5054480;28;20075;-68
2021/10/01 10:20:18;;;;;;;16.58;10.43;;;25.90;51.20;;;;;;5054747;28;20020;-69
2021/10/01 10:22:44;;;;;;;11.48;8.57;;;26.00;51.00;;;;;;5053603;28;20103;-68
2021/10/01 10:25:10;;;;;;;15.20;9.30;;;26.10;50.70;;;;;;5053151;28;20569;-68
2021/10/01 10:27:36;;;;;;;16.83;10.00;;;26.10;50.70;;;;;;5053167;28;20397;-68
2021/10/01 10:30:06;;;;;;;11.75;9.00;;;26.20;50.40;;;;;;5053205;28;20075;-67
2021/10/01 10:32:33;;;;;;;12.63;9.20;;;26.20;50.30;;;;;;5054375;28;20397;-66
2021/10/01 10:35:02;;;;;;;13.68;8.90;;;26.30;50.00;;;;;;5054299;28;20128;-67
2021/10/01 10:37:57;;;;;;;10.57;9.07;;;26.30;49.90;;;;;;5053051;28;20025;-68
2021/10/01 10:40:23;;;;;;;11.02;8.50;;;26.40;49.90;;;;;;5041379;28;20041;-67
2021/10/01 10:42:51;;;;;;;16.27;9.73;;;26.50;50.00;;;;;;5054288;28;20021;-71
2021/10/01 10:45:22;;;;;;;13.82;8.80;;;26.60;49.60;;;;;;5054290;28;20401;-67
2021/10/01 10:47:54;;;;;;;13.55;8.68;;;26.60;49.50;;;;;;5054336;28;20028;-68
2021/10/01 10:50:33;;;;;;;11.18;8.70;;;26.60;50.30;;;;;;5054098;28;20104;-68
2021/10/01 10:53:08;;;;;;;13.88;8.55;;;26.70;49.20;;;;;;5053968;28;20478;-65
2021/10/01 10:55:35;;;;;;;19.50;9.77;;;26.80;50.00;;;;;;5054079;28;20437;-67
2021/10/01 10:58:27;;;;;;;12.50;8.80;;;26.80;49.40;;;;;;5053867;28;20025;-67
2021/10/01 11:00:56;;;;;;;19.45;9.55;;;26.90;49.50;;;;;;5053833;28;20100;-67
2021/10/01 11:03:24;;;;;;;11.70;9.32;;;26.90;49.30;;;;;;5053787;28;20115;-68
2021/10/01 11:06:08;;;;;;;16.00;7.90;;;27.00;49.00;;;;;;5053779;28;20106;-69
2021/10/01 11:08:39;;;;;;;14.60;9.35;;;27.10;48.70;;;;;;5054319;28;20036;-67
2021/10/01 11:11:26;;;;;;;13.95;8.70;;;27.10;48.90;;;;;;5054729;28;20029;-73
2021/10/01 11:13:52;;;;;;;17.52;9.02;;;27.20;49.10;;;;;;5055374;28;20094;-67
2021/10/01 11:16:19;;;;;;;11.50;8.82;;;27.20;48.90;;;;;;5069230;22;20056;-68
2021/10/01 11:18:45;;;;;;;11.48;8.45;;;27.20;48.70;;;;;;5053344;28;20497;-68
2021/10/01 11:21:35;;;;;;;11.32;8.48;;;27.30;49.20;;;;;;5053765;28;20032;-66
2021/10/01 11:24:03;;;;;;;10.88;8.10;;;27.40;47.60;;;;;;5053367;28;20391;-67
2021/10/01 11:26:42;;;;;;;11.82;8.15;;;27.40;48.10;;;;;;5068770;28;20094;-67
2021/10/01 11:29:23;;;;;;;13.98;9.45;;;27.50;47.70;;;;;;5072989;28;20462;-69
2021/10/01 11:31:51;;;;;;;11.13;7.97;;;27.50;47.10;;;;;;5073157;28;20470;-67
2021/10/01 11:34:17;;;;;;;11.75;8.25;;;27.60;47.80;;;;;;5072925;28;20457;-67
2021/10/01 11:36:43;;;;;;;13.45;7.85;;;27.70;47.50;;;;;;5072805;28;20029;-67
2021/10/01 11:39:14;;;;;;;9.73;7.53;;;27.70;47.40;;;;;;5073021;28;20492;-67
2021/10/01 11:41:42;;;;;;;12.75;8.25;;;27.80;45.70;;;;;;5072209;28;20108;-67
2021/10/01 11:44:09;;;;;;;10.63;8.48;;;27.80;47.10;;;;;;5072760;28;20037;-67
2021/10/01 11:46:42;;;;;;;10.98;8.10;;;27.80;46.80;;;;;;5073227;28;20036;-67
2021/10/01 11:49:24;;;;;;;9.63;7.90;;;27.80;46.60;;;;;;5072997;28;20409;-67
2021/10/01 11:52:07;;;;;;;12.57;8.48;;;27.80;46.40;;;;;;5072420;28;20420;-66
2021/10/01 11:54:33;;;;;;;10.93;8.27;;;27.70;46.30;;;;;;5072688;28;20055;-69
2021/10/01 11:57:02;;;;;;;16.58;9.07;;;27.80;46.50;;;;;;5072907;28;20426;-66
2021/10/01 11:59:50;;;;;;;10.27;8.45;;;27.90;47.10;;;;;;5072746;28;20020;-67
2021/10/01 12:02:46;;;;;;;10.55;7.70;;;27.90;46.40;;;;;;5064525;28;20416;-66
2021/10/01 12:05:18;;;;;;;12.55;8.45;;;28.00;46.20;;;;;;5059696;28;20059;-66
2021/10/01 12:07:45;;;;;;;12.90;7.97;;;28.00;46.00;;;;;;5073174;28;20083;-68
2021/10/01 12:10:11;;;;;;;14.80;8.40;;;28.10;46.90;;;;;;5072700;28;20035;-70
2021/10/01 12:12:37;;;;;;;11.57;7.45;;;28.20;46.80;;;;;;5072583;28;20385;-69
2021/10/01 12:15:03;;;;;;;16.52;7.97;;;28.20;46.40;;;;;;5072572;28;20031;-69
2021/10/01 12:17:37;;;;;;;10.02;8.10;;;28.20;46.10;;;;;;5072542;28;20041;-70
2021/10/01 12:20:03;;;;;;;10.38;8.50;;;28.20;46.00;;;;;;5072499;28;20056;-70
2021/10/01 12:22:32;;;;;;;10.35;7.85;;;28.30;45.80;;;;;;5072664;28;20029;-69
2021/10/01 12:24:58;;;;;;;16.05;9.02;;;28.30;46.60;;;;;;5072404;28;20382;-69
2021/10/01 12:27:40;;;;;;;12.20;9.70;;;28.40;46.60;;;;;;5072661;28;20025;-70
2021/10/01 12:30:07;;;;;;;16.73;9.60;;;28.50;46.40;;;;;;5072388;28;20488;-69
2021/10/01 12:32:34;;;;;;;14.63;9.00;;;28.50;46.30;;;;;;5072748;28;20067;-70
2021/10/01 12:35:01;;;;;;;11.13;8.95;;;28.60;46.50;;;;;;5072690;28;20029;-69
2021/10/01 12:37:30;;;;;;;12.30;8.15;;;28.60;46.40;;;;;;5072562;28;20382;-70
2021/10/01 12:39:58;;;;;;;14.63;9.73;;;28.60;46.30;;;;;;5072558;28;20480;-70
2021/10/01 12:42:33;;;;;;;12.82;9.00;;;28.60;47.20;;;;;;5072278;28;20035;-70
2021/10/01 12:45:13;;;;;;;11.90;9.10;;;28.70;45.40;;;;;;5072614;28;20059;-67
2021/10/01 12:47:42;;;;;;;11.68;8.35;;;28.70;45.50;;;;;;5072558;28;20020;-67
2021/10/01 12:50:14;;;;;;;14.50;9.38;;;28.70;46.80;;;;;;5072537;28;20130;-70
2021/10/01 12:52:46;;;;;;;11.30;8.90;;;28.70;46.20;;;;;;5072723;28;20044;-66
2021/10/01 12:55:14;;;;;;;9.95;8.00;;;28.70;44.30;;;;;;5076071;28;20461;-67
2021/10/01 12:57:45;;;;;;;11.80;8.90;;;28.70;46.30;;;;;;5076582;28;20115;-68
2021/10/01 13:00:18;;;;;;;12.00;8.38;;;28.60;46.00;;;;;;5076499;28;20021;-67
2021/10/01 13:02:46;;;;;;;;;;;28.40;43.80;;;;;;5076650;28;20119;-69
2021/10/01 13:05:22;;;;;;;12.00;8.85;;;28.40;46.10;;;;;;5075708;28;19935;-67
2021/10/01 13:07:49;;;;;;;14.20;9.00;;;28.30;44.60;;;;;;5076209;28;20426;-67
2021/10/01 13:10:21;;;;;;;12.93;9.18;;;28.20;46.80;;;;;;5076556;28;20031;-68
2021/10/01 13:12:47;;;;;;;14.93;9.07;;;28.20;44.90;;;;;;5077144;28;20127;-67
2021/10/01 13:15:23;;;;;;;14.55;9.13;;;28.30;47.00;;;;;;5076914;28;20462;-68
2021/10/01 13:18:25;;;;;;;13.00;9.82;;;28.40;45.00;;;;;;5076248;28;20036;-68
2021/10/01 13:20:55;;;;;;;16.73;10.32;;;28.40;46.10;;;;;;5065702;28;20446;-67
2021/10/01 13:23:38;;;;;;;18.45;9.98;;;28.50;48.50;;;;;;5075447;28;20110;-68
2021/10/01 13:26:12;;;;;;;14.27;9.98;;;28.60;48.40;;;;;;5075664;28;20032;-67
2021/10/01 13:28:38;;;;;;;15.85;10.73;;;28.70;48.30;;;;;;5074222;28;20051;-71
2021/10/01 13:31:03;;;;;;;13.63;10.25;;;28.70;49.50;;;;;;5075716;28;20489;-66
2021/10/01 13:33:29;;;;;;;14.77;10.18;;;28.80;49.60;;;;;;5075813;28;20021;-68
2021/10/01 13:35:57;;;;;;;18.55;10.43;;;28.70;49.30;;;;;;5075187;28;20069;-67
2021/10/01 13:38:32;;;;;;;17.90;10.02;;;28.70;49.70;;;;;;5075336;28;20170;-69
2021/10/01 13:41:00;;;;;;;20.60;10.32;;;28.80;49.80;;;;;;5075395;28;20048;-67
2021/10/01 13:43:27;;;;;;;18.88;9.80;;;28.80;50.10;;;;;;5074033;28;20023;-68
2021/10/01 13:45:54;;;;;;;18.63;10.30;;;28.90;49.90;;;;;;5073757;28;20036;-69
2021/10/01 13:48:19;;;;;;;16.63;9.75;;;28.90;50.00;;;;;;5075193;28;20449;-66
2021/10/01 13:50:45;;;;;;;15.38;10.02;;;28.90;50.20;;;;;;5075444;28;20513;-67
2021/10/01 13:53:11;;;;;;;16.85;9.85;;;28.90;50.40;;;;;;5075404;28;20031;-67
2021/10/01 13:55:37;;;;;;;18.13;10.13;;;28.80;50.20;;;;;;5075659;28;20412;-68
2021/10/01 13:58:03;;;;;;;14.50;9.40;;;28.80;50.50;;;;;;5075999;28;20064;-69
2021/10/01 14:00:29;;;;;;;15.93;9.57;;;28.80;50.30;;;;;;5075413;28;20056;-68
2021/10/01 14:02:54;;;;;;;13.25;9.63;;;28.80;50.30;;;;;;5075178;28;20384;-67
2021/10/01 14:05:20;;;;;;;13.43;8.93;;;28.80;50.20;;;;;;5073229;28;20094;-67
2021/10/01 14:07:46;;;;;;;16.08;11.50;;;28.70;50.30;;;;;;5074901;28;20051;-70
2021/10/01 14:10:19;;;;;;;17.17;10.38;;;28.70;50.50;;;;;;5075096;28;20036;-69
2021/10/01 14:12:47;;;;;;;14.70;9.35;;;28.70;50.00;;;;;;5073658;28;20482;-69
2021/10/01 14:15:18;;;;;;;14.05;9.60;;;28.70;50.40;;;;;;5074993;28;20037;-70
2021/10/01 14:17:45;;;;;;;19.33;9.35;;;28.70;49.00;;;;;;5074835;28;20098;-68
2021/10/01 14:20:12;;;;;;;20.33;9.77;;;28.70;50.30;;;;;;5074887;28;20045;-68
2021/10/01 14:22:39;;;;;;;13.63;9.27;;;28.70;50.10;;;;;;5074850;28;20028;-69